SKY0911 LTFG-LTDA
Flight info
| Callsign | SKY0911 |
|---|---|
| Flight time | 1h 9m |
| Altitude | 7500 |
| Route | DIRECT |
| Aircraft | DC3/M-SDE/L |
Departure
| Time | 2026-05-06 19:13 |
|---|---|
| Airport | Gazipaşa-Alanya Airport (LTFG) |
Arrival
| Time | 2026-05-06 20:22 |
|---|---|
| Airport | Hatay Airport (LTDA) |
| Time | Latitude | Longitude | Altitude | Speed | Heading |
|---|---|---|---|---|---|
| 2026-05-06 18:57 | 36.29782 | 32.30252 | 109 ft | 0 kts | 170° |
| 2026-05-06 19:07 | 36.29778 | 32.30253 | 113 ft | 0 kts | 134° |
| 2026-05-06 19:08 | 36.29776 | 32.30279 | 113 ft | 8 kts | 71° |
| 2026-05-06 19:08 | 36.29809 | 32.30316 | 113 ft | 0 kts | 45° |
| 2026-05-06 19:09 | 36.29810 | 32.30316 | 112 ft | 0 kts | 45° |
| 2026-05-06 19:09 | 36.29816 | 32.30334 | 112 ft | 5 kts | 77° |
| 2026-05-06 19:09 | 36.29851 | 32.30407 | 116 ft | 13 kts | 34° |
| 2026-05-06 19:09 | 36.29944 | 32.30367 | 116 ft | 16 kts | 8° |
| 2026-05-06 19:10 | 36.29980 | 32.30487 | 123 ft | 15 kts | 88° |
| 2026-05-06 19:10 | 36.29992 | 32.30619 | 129 ft | 17 kts | 78° |
| 2026-05-06 19:10 | 36.30020 | 32.30783 | 135 ft | 20 kts | 80° |
| 2026-05-06 19:10 | 36.30048 | 32.30947 | 141 ft | 18 kts | 66° |
| 2026-05-06 19:11 | 36.30071 | 32.31019 | 144 ft | 0 kts | 140° |
| 2026-05-06 19:11 | 36.30049 | 32.31020 | 144 ft | 6 kts | 225° |
| 2026-05-06 19:11 | 36.30040 | 32.30997 | 143 ft | 0 kts | 262° |
| 2026-05-06 19:11 | 36.30035 | 32.30951 | 141 ft | 19 kts | 262° |
| 2026-05-06 19:12 | 36.29995 | 32.30620 | 130 ft | 55 kts | 260° |
| 2026-05-06 19:12 | 36.29925 | 32.29989 | 106 ft | 92 kts | 263° |
| 2026-05-06 19:12 | 36.29836 | 32.29180 | 304 ft | 96 kts | 262° |
| 2026-05-06 19:12 | 36.29591 | 32.28428 | 644 ft | 95 kts | 232° |
| 2026-05-06 19:13 | 36.29043 | 32.28095 | 1020 ft | 91 kts | 177° |
| 2026-05-06 19:13 | 36.28601 | 32.28629 | 1242 ft | 103 kts | 101° |
| 2026-05-06 19:13 | 36.28648 | 32.29533 | 1550 ft | 102 kts | 81° |
| 2026-05-06 19:13 | 36.28716 | 32.30413 | 1750 ft | 110 kts | 92° |
| 2026-05-06 19:14 | 36.28674 | 32.31323 | 2066 ft | 97 kts | 98° |
| 2026-05-06 19:14 | 36.28424 | 32.32058 | 2301 ft | 92 kts | 117° |
| 2026-05-06 19:14 | 36.28240 | 32.32829 | 2441 ft | 100 kts | 84° |
| 2026-05-06 19:14 | 36.28545 | 32.33648 | 2647 ft | 112 kts | 55° |
| 2026-05-06 19:15 | 36.29019 | 32.34501 | 2790 ft | 127 kts | 68° |
| 2026-05-06 19:15 | 36.29027 | 32.35596 | 2992 ft | 133 kts | 109° |
| 2026-05-06 19:15 | 36.28478 | 32.36531 | 3210 ft | 137 kts | 134° |
| 2026-05-06 19:15 | 36.27828 | 32.37407 | 3452 ft | 138 kts | 133° |
| 2026-05-06 19:16 | 36.27186 | 32.38279 | 3719 ft | 137 kts | 133° |
| 2026-05-06 19:16 | 36.26709 | 32.39285 | 3948 ft | 137 kts | 102° |
| 2026-05-06 19:16 | 36.26489 | 32.40423 | 4218 ft | 135 kts | 104° |
| 2026-05-06 19:16 | 36.26282 | 32.41539 | 4472 ft | 135 kts | 103° |
| 2026-05-06 19:17 | 36.26073 | 32.42673 | 4728 ft | 134 kts | 103° |
| 2026-05-06 19:17 | 36.25934 | 32.43814 | 4972 ft | 135 kts | 95° |
| 2026-05-06 19:17 | 36.25881 | 32.44960 | 5215 ft | 134 kts | 92° |
| 2026-05-06 19:17 | 36.25844 | 32.46122 | 5460 ft | 134 kts | 92° |
| 2026-05-06 19:18 | 36.25802 | 32.47272 | 5745 ft | 130 kts | 92° |
| 2026-05-06 19:18 | 36.25763 | 32.48355 | 6087 ft | 123 kts | 92° |
| 2026-05-06 19:18 | 36.25710 | 32.49372 | 6391 ft | 118 kts | 97° |
| 2026-05-06 19:18 | 36.25578 | 32.50379 | 6670 ft | 117 kts | 101° |
| 2026-05-06 19:19 | 36.25428 | 32.51412 | 6746 ft | 134 kts | 99° |
| 2026-05-06 19:19 | 36.25258 | 32.52622 | 6780 ft | 148 kts | 99° |
| 2026-05-06 19:19 | 36.25083 | 32.53881 | 7018 ft | 144 kts | 99° |
| 2026-05-06 19:19 | 36.24925 | 32.55019 | 7414 ft | 129 kts | 99° |
| 2026-05-06 19:20 | 36.24774 | 32.56081 | 7730 ft | 123 kts | 100° |
| 2026-05-06 19:20 | 36.24618 | 32.57183 | 7776 ft | 139 kts | 99° |
| 2026-05-06 19:20 | 36.24451 | 32.58411 | 7896 ft | 145 kts | 99° |
| 2026-05-06 19:20 | 36.24326 | 32.59653 | 8074 ft | 146 kts | 92° |
| 2026-05-06 19:21 | 36.24281 | 32.60900 | 8259 ft | 146 kts | 91° |
| 2026-05-06 19:21 | 36.24293 | 32.62171 | 8448 ft | 147 kts | 87° |
| 2026-05-06 19:21 | 36.24359 | 32.63435 | 8633 ft | 147 kts | 85° |
| 2026-05-06 19:21 | 36.24430 | 32.64694 | 8818 ft | 147 kts | 85° |
| 2026-05-06 19:22 | 36.24499 | 32.65955 | 8993 ft | 147 kts | 86° |
| 2026-05-06 19:22 | 36.24572 | 32.67214 | 9163 ft | 147 kts | 86° |
| 2026-05-06 19:22 | 36.24649 | 32.68512 | 9235 ft | 155 kts | 86° |
| 2026-05-06 19:22 | 36.24729 | 32.69858 | 9307 ft | 160 kts | 85° |
| 2026-05-06 19:23 | 36.24810 | 32.71260 | 9388 ft | 165 kts | 86° |
| 2026-05-06 19:23 | 36.24892 | 32.72674 | 9472 ft | 166 kts | 86° |
| 2026-05-06 19:23 | 36.24975 | 32.74113 | 9557 ft | 166 kts | 86° |
| 2026-05-06 19:23 | 36.25058 | 32.75535 | 9645 ft | 167 kts | 86° |
| 2026-05-06 19:24 | 36.25138 | 32.76958 | 9727 ft | 167 kts | 86° |
| 2026-05-06 19:24 | 36.25220 | 32.78407 | 9823 ft | 167 kts | 85° |
| 2026-05-06 19:24 | 36.25301 | 32.79836 | 9912 ft | 168 kts | 86° |
| 2026-05-06 19:24 | 36.25378 | 32.81275 | 10003 ft | 168 kts | 86° |
| 2026-05-06 19:25 | 36.25456 | 32.82739 | 10061 ft | 170 kts | 86° |
| 2026-05-06 19:25 | 36.25538 | 32.84211 | 10084 ft | 173 kts | 86° |
| 2026-05-06 19:25 | 36.25623 | 32.85692 | 10121 ft | 174 kts | 86° |
| 2026-05-06 19:25 | 36.25708 | 32.87186 | 10166 ft | 175 kts | 86° |
| 2026-05-06 19:26 | 36.25791 | 32.88703 | 10210 ft | 175 kts | 86° |
| 2026-05-06 19:26 | 36.25873 | 32.90207 | 10254 ft | 175 kts | 86° |
| 2026-05-06 19:26 | 36.25956 | 32.91717 | 10293 ft | 175 kts | 86° |
| 2026-05-06 19:26 | 36.26036 | 32.93216 | 10332 ft | 175 kts | 86° |
| 2026-05-06 19:27 | 36.26118 | 32.94727 | 10375 ft | 176 kts | 86° |
| 2026-05-06 19:27 | 36.26199 | 32.96240 | 10424 ft | 177 kts | 86° |
| 2026-05-06 19:27 | 36.26280 | 32.97770 | 10473 ft | 177 kts | 86° |
| 2026-05-06 19:27 | 36.26361 | 32.99280 | 10514 ft | 176 kts | 86° |
| 2026-05-06 19:28 | 36.26437 | 33.00779 | 10561 ft | 177 kts | 86° |
| 2026-05-06 19:28 | 36.26515 | 33.02303 | 10593 ft | 177 kts | 86° |
| 2026-05-06 19:28 | 36.26597 | 33.03840 | 10578 ft | 180 kts | 86° |
| 2026-05-06 19:28 | 36.26683 | 33.05402 | 10548 ft | 182 kts | 86° |
| 2026-05-06 19:29 | 36.26770 | 33.06969 | 10529 ft | 183 kts | 86° |
| 2026-05-06 19:29 | 36.26857 | 33.08525 | 10516 ft | 183 kts | 86° |
| 2026-05-06 19:29 | 36.26946 | 33.10097 | 10508 ft | 182 kts | 86° |
| 2026-05-06 19:29 | 36.27035 | 33.11653 | 10492 ft | 182 kts | 86° |
| 2026-05-06 19:30 | 36.27119 | 33.13215 | 10493 ft | 182 kts | 86° |
| 2026-05-06 19:30 | 36.27201 | 33.14780 | 10477 ft | 182 kts | 86° |
| 2026-05-06 19:30 | 36.27281 | 33.16348 | 10462 ft | 182 kts | 86° |
| 2026-05-06 19:30 | 36.27361 | 33.17902 | 10440 ft | 182 kts | 86° |
| 2026-05-06 19:31 | 36.27447 | 33.19463 | 10426 ft | 182 kts | 86° |
| 2026-05-06 19:31 | 36.27537 | 33.21035 | 10407 ft | 182 kts | 86° |
| 2026-05-06 19:31 | 36.27721 | 33.24153 | 10360 ft | 183 kts | 86° |
| 2026-05-06 19:32 | 36.27817 | 33.25734 | 10340 ft | 184 kts | 86° |
| 2026-05-06 19:32 | 36.27914 | 33.27319 | 10333 ft | 183 kts | 86° |
| 2026-05-06 19:32 | 36.28010 | 33.28901 | 10366 ft | 183 kts | 86° |
| 2026-05-06 19:32 | 36.28103 | 33.30450 | 10382 ft | 182 kts | 86° |
| 2026-05-06 19:33 | 36.28195 | 33.32024 | 10395 ft | 182 kts | 86° |
| 2026-05-06 19:33 | 36.28288 | 33.33586 | 10421 ft | 181 kts | 86° |
| 2026-05-06 19:33 | 36.28377 | 33.35135 | 10454 ft | 181 kts | 86° |
| 2026-05-06 19:33 | 36.28466 | 33.36684 | 10468 ft | 181 kts | 86° |
| 2026-05-06 19:34 | 36.28553 | 33.38246 | 10485 ft | 181 kts | 86° |
| 2026-05-06 19:34 | 36.28642 | 33.39789 | 10499 ft | 181 kts | 86° |
| 2026-05-06 19:34 | 36.28732 | 33.41331 | 10510 ft | 181 kts | 86° |
| 2026-05-06 19:34 | 36.28823 | 33.42902 | 10520 ft | 181 kts | 86° |
| 2026-05-06 19:35 | 36.28912 | 33.44453 | 10540 ft | 181 kts | 86° |
| 2026-05-06 19:35 | 36.29002 | 33.45994 | 10541 ft | 180 kts | 86° |
| 2026-05-06 19:35 | 36.29094 | 33.47539 | 10557 ft | 180 kts | 86° |
| 2026-05-06 19:35 | 36.29185 | 33.49093 | 10565 ft | 180 kts | 86° |
| 2026-05-06 19:36 | 36.29272 | 33.50650 | 10589 ft | 180 kts | 86° |
| 2026-05-06 19:36 | 36.29356 | 33.52195 | 10605 ft | 180 kts | 86° |
| 2026-05-06 19:36 | 36.29441 | 33.53758 | 10614 ft | 180 kts | 86° |
| 2026-05-06 19:36 | 36.29523 | 33.55295 | 10634 ft | 181 kts | 86° |
| 2026-05-06 19:37 | 36.29607 | 33.56861 | 10600 ft | 183 kts | 86° |
| 2026-05-06 19:37 | 36.29695 | 33.58424 | 10580 ft | 184 kts | 86° |
| 2026-05-06 19:37 | 36.29763 | 33.60010 | 10565 ft | 184 kts | 88° |
| 2026-05-06 19:37 | 36.29799 | 33.61076 | 10565 ft | 184 kts | 88° |
| 2026-05-06 19:38 | 36.29872 | 33.63186 | 10555 ft | 184 kts | 88° |
| 2026-05-06 19:38 | 36.29924 | 33.64765 | 10544 ft | 185 kts | 88° |
| 2026-05-06 19:38 | 36.29975 | 33.66363 | 10527 ft | 185 kts | 89° |
| 2026-05-06 19:38 | 36.30027 | 33.67954 | 10519 ft | 185 kts | 89° |
| 2026-05-06 19:39 | 36.30081 | 33.69550 | 10516 ft | 185 kts | 89° |
| 2026-05-06 19:39 | 36.30136 | 33.71138 | 10504 ft | 185 kts | 89° |
| 2026-05-06 19:39 | 36.30191 | 33.72722 | 10468 ft | 185 kts | 89° |
| 2026-05-06 19:39 | 36.30248 | 33.74308 | 10459 ft | 184 kts | 89° |
| 2026-05-06 19:40 | 36.30306 | 33.75902 | 10451 ft | 185 kts | 89° |
| 2026-05-06 19:40 | 36.30362 | 33.77482 | 10454 ft | 185 kts | 89° |
| 2026-05-06 19:40 | 36.30420 | 33.79069 | 10441 ft | 185 kts | 89° |
| 2026-05-06 19:40 | 36.30479 | 33.80669 | 10418 ft | 185 kts | 89° |
| 2026-05-06 19:41 | 36.30537 | 33.82250 | 10434 ft | 185 kts | 89° |
| 2026-05-06 19:41 | 36.30592 | 33.83847 | 10411 ft | 185 kts | 89° |
| 2026-05-06 19:41 | 36.30648 | 33.85416 | 10399 ft | 184 kts | 89° |
| 2026-05-06 19:41 | 36.30708 | 33.87017 | 10385 ft | 184 kts | 89° |
| 2026-05-06 19:42 | 36.30769 | 33.88593 | 10392 ft | 184 kts | 89° |
| 2026-05-06 19:42 | 36.30830 | 33.90181 | 10396 ft | 184 kts | 89° |
| 2026-05-06 19:42 | 36.30889 | 33.91753 | 10392 ft | 184 kts | 89° |
| 2026-05-06 19:42 | 36.30974 | 33.93348 | 10360 ft | 184 kts | 88° |
| 2026-05-06 19:43 | 36.31059 | 33.94919 | 10339 ft | 184 kts | 88° |
| 2026-05-06 19:43 | 36.31140 | 33.96486 | 10331 ft | 183 kts | 88° |
| 2026-05-06 19:43 | 36.31218 | 33.98081 | 10305 ft | 183 kts | 88° |
| 2026-05-06 19:43 | 36.31292 | 33.99647 | 10307 ft | 183 kts | 88° |
| 2026-05-06 19:44 | 36.31374 | 34.01228 | 10305 ft | 183 kts | 88° |
| 2026-05-06 19:44 | 36.31464 | 34.02814 | 10285 ft | 184 kts | 88° |
| 2026-05-06 19:44 | 36.31559 | 34.04381 | 10275 ft | 184 kts | 88° |
| 2026-05-06 19:44 | 36.31655 | 34.05960 | 10280 ft | 184 kts | 88° |
| 2026-05-06 19:45 | 36.31749 | 34.07539 | 10272 ft | 184 kts | 88° |
| 2026-05-06 19:45 | 36.31844 | 34.09102 | 10242 ft | 184 kts | 88° |
| 2026-05-06 19:45 | 36.31939 | 34.10686 | 10229 ft | 183 kts | 88° |
| 2026-05-06 19:45 | 36.32032 | 34.12261 | 10233 ft | 183 kts | 88° |
| 2026-05-06 19:46 | 36.32124 | 34.13852 | 10182 ft | 186 kts | 88° |
| 2026-05-06 19:46 | 36.32216 | 34.15472 | 10077 ft | 190 kts | 88° |
| 2026-05-06 19:46 | 36.32307 | 34.17105 | 9998 ft | 193 kts | 88° |
| 2026-05-06 19:46 | 36.32400 | 34.18775 | 9900 ft | 195 kts | 88° |
| 2026-05-06 19:47 | 36.32495 | 34.20468 | 9805 ft | 196 kts | 88° |
| 2026-05-06 19:47 | 36.32590 | 34.22153 | 9735 ft | 196 kts | 88° |
| 2026-05-06 19:47 | 36.32682 | 34.23830 | 9649 ft | 197 kts | 88° |
| 2026-05-06 19:47 | 36.32775 | 34.25528 | 9567 ft | 197 kts | 88° |
| 2026-05-06 19:48 | 36.32866 | 34.27215 | 9488 ft | 197 kts | 88° |
| 2026-05-06 19:48 | 36.32959 | 34.28904 | 9427 ft | 195 kts | 88° |
| 2026-05-06 19:48 | 36.33051 | 34.30555 | 9405 ft | 192 kts | 88° |
| 2026-05-06 19:48 | 36.33143 | 34.32202 | 9389 ft | 190 kts | 88° |
| 2026-05-06 19:49 | 36.33229 | 34.33822 | 9394 ft | 189 kts | 88° |
| 2026-05-06 19:49 | 36.33314 | 34.35455 | 9384 ft | 189 kts | 88° |
| 2026-05-06 19:49 | 36.33396 | 34.37088 | 9369 ft | 188 kts | 88° |
| 2026-05-06 19:49 | 36.33475 | 34.38691 | 9345 ft | 188 kts | 88° |
| 2026-05-06 19:50 | 36.33556 | 34.40327 | 9340 ft | 188 kts | 88° |
| 2026-05-06 19:50 | 36.33636 | 34.41947 | 9321 ft | 188 kts | 88° |
| 2026-05-06 19:50 | 36.33717 | 34.43556 | 9295 ft | 188 kts | 88° |
| 2026-05-06 19:50 | 36.33798 | 34.45184 | 9265 ft | 188 kts | 88° |
| 2026-05-06 19:51 | 36.33878 | 34.46795 | 9232 ft | 188 kts | 88° |
| 2026-05-06 19:51 | 36.33957 | 34.48414 | 9206 ft | 188 kts | 88° |
| 2026-05-06 19:51 | 36.34032 | 34.50018 | 9205 ft | 188 kts | 88° |
| 2026-05-06 19:51 | 36.34109 | 34.51647 | 9183 ft | 188 kts | 88° |
| 2026-05-06 19:52 | 36.34184 | 34.53250 | 9146 ft | 188 kts | 88° |
| 2026-05-06 19:52 | 36.34259 | 34.54865 | 9136 ft | 188 kts | 88° |
| 2026-05-06 19:52 | 36.34319 | 34.56484 | 9140 ft | 188 kts | 89° |
| 2026-05-06 19:52 | 36.34369 | 34.58110 | 9142 ft | 188 kts | 89° |
| 2026-05-06 19:53 | 36.34415 | 34.59736 | 9107 ft | 188 kts | 89° |
| 2026-05-06 19:53 | 36.34462 | 34.61346 | 9045 ft | 188 kts | 89° |
| 2026-05-06 19:53 | 36.34509 | 34.62963 | 9047 ft | 188 kts | 89° |
| 2026-05-06 19:53 | 36.34554 | 34.64593 | 9031 ft | 188 kts | 89° |
| 2026-05-06 19:54 | 36.34600 | 34.66194 | 9022 ft | 188 kts | 90° |
| 2026-05-06 19:54 | 36.34648 | 34.67825 | 9010 ft | 188 kts | 90° |
| 2026-05-06 19:54 | 36.34694 | 34.69426 | 9006 ft | 188 kts | 90° |
| 2026-05-06 19:54 | 36.34740 | 34.71056 | 8993 ft | 188 kts | 90° |
| 2026-05-06 19:55 | 36.34786 | 34.72669 | 8980 ft | 188 kts | 90° |
| 2026-05-06 19:55 | 36.34833 | 34.74291 | 8950 ft | 189 kts | 90° |
| 2026-05-06 19:55 | 36.34877 | 34.75927 | 8926 ft | 189 kts | 90° |
| 2026-05-06 19:55 | 36.34917 | 34.77553 | 8911 ft | 188 kts | 90° |
| 2026-05-06 19:56 | 36.34954 | 34.79161 | 8894 ft | 188 kts | 90° |
| 2026-05-06 19:56 | 36.34993 | 34.80786 | 8899 ft | 189 kts | 90° |
| 2026-05-06 19:56 | 36.35029 | 34.82413 | 8881 ft | 189 kts | 90° |
| 2026-05-06 19:56 | 36.35064 | 34.84051 | 8850 ft | 189 kts | 90° |
| 2026-05-06 19:57 | 36.35100 | 34.85674 | 8838 ft | 189 kts | 90° |
| 2026-05-06 19:57 | 36.35138 | 34.87289 | 8831 ft | 189 kts | 90° |
| 2026-05-06 19:57 | 36.35177 | 34.88913 | 8816 ft | 189 kts | 90° |
| 2026-05-06 19:57 | 36.35218 | 34.90557 | 8800 ft | 189 kts | 90° |
| 2026-05-06 19:58 | 36.35257 | 34.92186 | 8778 ft | 189 kts | 90° |
| 2026-05-06 19:58 | 36.35293 | 34.93799 | 8767 ft | 189 kts | 90° |
| 2026-05-06 19:58 | 36.35330 | 34.95435 | 8757 ft | 189 kts | 90° |
| 2026-05-06 19:58 | 36.35366 | 34.97049 | 8738 ft | 189 kts | 90° |
| 2026-05-06 19:59 | 36.35397 | 34.98682 | 8716 ft | 189 kts | 90° |
| 2026-05-06 19:59 | 36.35425 | 35.00294 | 8688 ft | 188 kts | 90° |
| 2026-05-06 19:59 | 36.35447 | 35.01911 | 8678 ft | 187 kts | 90° |
| 2026-05-06 19:59 | 36.35468 | 35.03513 | 8656 ft | 185 kts | 90° |
| 2026-05-06 20:00 | 36.35493 | 35.05101 | 8622 ft | 183 kts | 90° |
| 2026-05-06 20:00 | 36.35513 | 35.06681 | 8588 ft | 182 kts | 90° |
| 2026-05-06 20:00 | 36.35533 | 35.08234 | 8554 ft | 182 kts | 90° |
| 2026-05-06 20:00 | 36.35554 | 35.09805 | 8523 ft | 181 kts | 90° |
| 2026-05-06 20:01 | 36.35577 | 35.11377 | 8487 ft | 181 kts | 90° |
| 2026-05-06 20:01 | 36.35600 | 35.12929 | 8456 ft | 181 kts | 90° |
| 2026-05-06 20:01 | 36.35630 | 35.14491 | 8419 ft | 181 kts | 90° |
| 2026-05-06 20:01 | 36.35662 | 35.16055 | 8386 ft | 181 kts | 90° |
| 2026-05-06 20:02 | 36.35693 | 35.17612 | 8354 ft | 181 kts | 90° |
| 2026-05-06 20:02 | 36.35722 | 35.19173 | 8315 ft | 181 kts | 90° |
| 2026-05-06 20:02 | 36.35748 | 35.20730 | 8289 ft | 181 kts | 90° |
| 2026-05-06 20:02 | 36.35774 | 35.22292 | 8259 ft | 181 kts | 90° |
| 2026-05-06 20:03 | 36.35801 | 35.23857 | 8220 ft | 181 kts | 90° |
| 2026-05-06 20:03 | 36.35824 | 35.25413 | 8186 ft | 182 kts | 90° |
| 2026-05-06 20:03 | 36.35868 | 35.26992 | 8147 ft | 182 kts | 88° |
| 2026-05-06 20:03 | 36.35915 | 35.28550 | 8117 ft | 182 kts | 89° |
| 2026-05-06 20:04 | 36.35965 | 35.30117 | 8086 ft | 182 kts | 89° |
| 2026-05-06 20:04 | 36.36019 | 35.31676 | 8057 ft | 182 kts | 89° |
| 2026-05-06 20:04 | 36.36074 | 35.33240 | 8029 ft | 181 kts | 89° |
| 2026-05-06 20:04 | 36.36128 | 35.34797 | 7997 ft | 181 kts | 88° |
| 2026-05-06 20:05 | 36.36183 | 35.36349 | 7969 ft | 181 kts | 89° |
| 2026-05-06 20:05 | 36.36234 | 35.37928 | 7939 ft | 181 kts | 89° |
| 2026-05-06 20:05 | 36.36242 | 35.39466 | 7915 ft | 180 kts | 90° |
| 2026-05-06 20:05 | 36.36250 | 35.41032 | 7886 ft | 181 kts | 91° |
| 2026-05-06 20:06 | 36.36258 | 35.42579 | 7861 ft | 181 kts | 91° |
| 2026-05-06 20:06 | 36.36265 | 35.44157 | 7836 ft | 181 kts | 90° |
| 2026-05-06 20:06 | 36.36268 | 35.45703 | 7803 ft | 181 kts | 90° |
| 2026-05-06 20:06 | 36.36268 | 35.47262 | 7775 ft | 180 kts | 91° |
| 2026-05-06 20:07 | 36.36271 | 35.48815 | 7744 ft | 181 kts | 91° |
| 2026-05-06 20:07 | 36.36276 | 35.50370 | 7712 ft | 181 kts | 90° |
| 2026-05-06 20:07 | 36.36279 | 35.51932 | 7682 ft | 181 kts | 91° |
| 2026-05-06 20:07 | 36.36279 | 35.53499 | 7655 ft | 181 kts | 90° |
| 2026-05-06 20:08 | 36.36277 | 35.55050 | 7627 ft | 181 kts | 91° |
| 2026-05-06 20:08 | 36.36280 | 35.56620 | 7600 ft | 181 kts | 91° |
| 2026-05-06 20:08 | 36.36291 | 35.58175 | 7573 ft | 181 kts | 91° |
| 2026-05-06 20:08 | 36.36301 | 35.59736 | 7543 ft | 181 kts | 91° |
| 2026-05-06 20:09 | 36.36309 | 35.61292 | 7521 ft | 181 kts | 91° |
| 2026-05-06 20:09 | 36.36314 | 35.62854 | 7496 ft | 180 kts | 91° |
| 2026-05-06 20:09 | 36.36319 | 35.64392 | 7472 ft | 180 kts | 91° |
| 2026-05-06 20:09 | 36.36325 | 35.65947 | 7443 ft | 180 kts | 91° |
| 2026-05-06 20:10 | 36.36328 | 35.67501 | 7416 ft | 180 kts | 91° |
| 2026-05-06 20:10 | 36.36326 | 35.69069 | 7392 ft | 180 kts | 91° |
| 2026-05-06 20:10 | 36.36314 | 35.70603 | 7382 ft | 178 kts | 94° |
| 2026-05-06 20:10 | 36.36214 | 35.72076 | 7613 ft | 166 kts | 96° |
| 2026-05-06 20:11 | 36.36166 | 35.73476 | 7781 ft | 164 kts | 90° |
| 2026-05-06 20:11 | 36.36160 | 35.74873 | 8028 ft | 156 kts | 96° |
| 2026-05-06 20:11 | 36.36064 | 35.76178 | 8264 ft | 152 kts | 96° |
| 2026-05-06 20:11 | 36.36035 | 35.77457 | 8508 ft | 147 kts | 98° |
| 2026-05-06 20:12 | 36.35792 | 35.78718 | 8609 ft | 154 kts | 107° |
| 2026-05-06 20:12 | 36.35611 | 35.80024 | 8772 ft | 154 kts | 101° |
| 2026-05-06 20:12 | 36.35475 | 35.81327 | 9017 ft | 149 kts | 101° |
| 2026-05-06 20:12 | 36.35333 | 35.82539 | 9317 ft | 141 kts | 101° |
| 2026-05-06 20:13 | 36.35237 | 35.83773 | 9430 ft | 148 kts | 97° |
| 2026-05-06 20:13 | 36.35136 | 35.85057 | 9568 ft | 150 kts | 98° |
| 2026-05-06 20:13 | 36.35108 | 35.86301 | 9855 ft | 142 kts | 87° |
| 2026-05-06 20:13 | 36.35158 | 35.87544 | 9943 ft | 150 kts | 92° |
| 2026-05-06 20:14 | 36.35122 | 35.88894 | 9929 ft | 161 kts | 94° |
| 2026-05-06 20:14 | 36.35149 | 35.90303 | 9983 ft | 165 kts | 88° |
| 2026-05-06 20:14 | 36.35244 | 35.91742 | 10067 ft | 167 kts | 90° |
| 2026-05-06 20:14 | 36.35212 | 35.93170 | 10170 ft | 166 kts | 98° |
| 2026-05-06 20:15 | 36.35122 | 35.94601 | 10287 ft | 166 kts | 95° |
| 2026-05-06 20:15 | 36.35062 | 35.96026 | 10377 ft | 166 kts | 96° |
| 2026-05-06 20:15 | 36.35069 | 35.97471 | 10458 ft | 168 kts | 92° |
| 2026-05-06 20:15 | 36.35019 | 35.98903 | 10537 ft | 168 kts | 97° |
| 2026-05-06 20:16 | 36.35003 | 36.00356 | 10594 ft | 171 kts | 91° |
| 2026-05-06 20:16 | 36.35004 | 36.01796 | 10353 ft | 162 kts | 94° |
| 2026-05-06 20:16 | 36.34990 | 36.03159 | 9981 ft | 157 kts | 92° |
| 2026-05-06 20:16 | 36.34958 | 36.04524 | 9412 ft | 164 kts | 96° |
| 2026-05-06 20:17 | 36.34921 | 36.05918 | 8996 ft | 159 kts | 91° |
| 2026-05-06 20:17 | 36.35007 | 36.07245 | 8607 ft | 155 kts | 88° |
| 2026-05-06 20:17 | 36.35002 | 36.08559 | 8225 ft | 150 kts | 94° |
| 2026-05-06 20:17 | 36.34971 | 36.09788 | 7975 ft | 135 kts | 94° |
| 2026-05-06 20:18 | 36.34982 | 36.10901 | 7700 ft | 126 kts | 89° |
| 2026-05-06 20:18 | 36.35040 | 36.11974 | 7358 ft | 125 kts | 89° |
| 2026-05-06 20:18 | 36.35084 | 36.13043 | 6960 ft | 126 kts | 89° |
| 2026-05-06 20:18 | 36.35085 | 36.14124 | 6561 ft | 125 kts | 101° |
| 2026-05-06 20:19 | 36.34913 | 36.15169 | 6179 ft | 123 kts | 103° |
| 2026-05-06 20:19 | 36.34652 | 36.16164 | 5753 ft | 126 kts | 124° |
| 2026-05-06 20:19 | 36.34097 | 36.16999 | 5321 ft | 124 kts | 130° |
| 2026-05-06 20:19 | 36.33709 | 36.17982 | 4716 ft | 137 kts | 109° |
| 2026-05-06 20:20 | 36.33437 | 36.19109 | 4085 ft | 145 kts | 114° |
| 2026-05-06 20:20 | 36.33001 | 36.20254 | 3378 ft | 154 kts | 118° |
| 2026-05-06 20:20 | 36.32719 | 36.21547 | 2945 ft | 153 kts | 99° |
| 2026-05-06 20:20 | 36.32691 | 36.22835 | 2535 ft | 152 kts | 89° |
| 2026-05-06 20:21 | 36.32886 | 36.24112 | 2058 ft | 146 kts | 74° |
| 2026-05-06 20:21 | 36.33282 | 36.25172 | 1641 ft | 121 kts | 60° |
| 2026-05-06 20:21 | 36.33770 | 36.25937 | 1168 ft | 116 kts | 47° |
| 2026-05-06 20:21 | 36.34370 | 36.26604 | 736 ft | 116 kts | 40° |
| 2026-05-06 20:22 | 36.34962 | 36.27258 | 394 ft | 111 kts | 44° |
| 2026-05-06 20:22 | 36.35481 | 36.27867 | 281 ft | 89 kts | 46° |
| 2026-05-06 20:22 | 36.35837 | 36.28273 | 281 ft | 44 kts | 42° |
| 2026-05-06 20:22 | 36.36023 | 36.28467 | 280 ft | 27 kts | 31° |
| 2026-05-06 20:23 | 36.36158 | 36.28410 | 281 ft | 22 kts | 313° |
| 2026-05-06 20:23 | 36.36244 | 36.28277 | 283 ft | 17 kts | 290° |
| 2026-05-06 20:23 | 36.36248 | 36.28199 | 284 ft | 0 kts | 137° |